Terminal Aerodrome Forecast
Issued by NWS

Home | Current Version | Previous Version | Text Only | Print | Product List | Glossary On
Versions: 1 2 3 4 5 6 7 8 9 10 11 12 13 14 15 16 17 18 19 20
000
FTUS45 KBOU 222326
TAFBJC
TAF
KBJC 222326Z 2300/2324 02018G28KT P6SM -SHRA SCT025 OVC040
      TEMPO 2300/2302 3SM -SHRA BR OVC025
     FM230200 36013KT P6SM SCT035 BKN050
     FM230600 31010KT P6SM SCT060
     FM231000 27006KT P6SM SCT060
     FM231500 02008KT P6SM SCT060
     FM231800 02012KT P6SM BKN080=

USA.gov is the U.S. government's official web portal to all federal, state and local government web resources and services.